sensor_id;sensor_type;location;lat;lon;timestamp;P1;durP1;ratioP1;P2;durP2;ratioP2
67051;SDS011;53957;47.222;18.670;2022-11-06T00:01:55;6.07;;;4.03;;
67051;SDS011;53957;47.222;18.670;2022-11-06T00:04:58;4.28;;;3.87;;
67051;SDS011;53957;47.222;18.670;2022-11-06T00:08:29;6.57;;;4.20;;
67051;SDS011;53957;47.222;18.670;2022-11-06T00:11:44;4.55;;;4.15;;
67051;SDS011;53957;47.222;18.670;2022-11-06T00:14:47;8.80;;;3.90;;
67051;SDS011;53957;47.222;18.670;2022-11-06T00:17:50;4.97;;;4.37;;
67051;SDS011;53957;47.222;18.670;2022-11-06T00:20:54;4.32;;;3.80;;
67051;SDS011;53957;47.222;18.670;2022-11-06T00:23:57;4.00;;;3.53;;
67051;SDS011;53957;47.222;18.670;2022-11-06T00:27:01;4.05;;;3.65;;
67051;SDS011;53957;47.222;18.670;2022-11-06T00:30:24;6.07;;;4.53;;
67051;SDS011;53957;47.222;18.670;2022-11-06T00:33:29;6.00;;;4.18;;
67051;SDS011;53957;47.222;18.670;2022-11-06T00:36:32;8.70;;;4.55;;
67051;SDS011;53957;47.222;18.670;2022-11-06T00:39:56;4.85;;;4.32;;
67051;SDS011;53957;47.222;18.670;2022-11-06T00:42:59;4.10;;;3.70;;
67051;SDS011;53957;47.222;18.670;2022-11-06T00:46:09;4.68;;;4.25;;
67051;SDS011;53957;47.222;18.670;2022-11-06T00:49:14;5.03;;;4.40;;
67051;SDS011;53957;47.222;18.670;2022-11-06T00:52:17;5.68;;;4.57;;
67051;SDS011;53957;47.222;18.670;2022-11-06T00:55:20;4.43;;;4.03;;
67051;SDS011;53957;47.222;18.670;2022-11-06T00:58:22;12.60;;;4.60;;
67051;SDS011;53957;47.222;18.670;2022-11-06T01:01:27;5.75;;;4.22;;
67051;SDS011;53957;47.222;18.670;2022-11-06T01:04:32;5.00;;;4.10;;
67051;SDS011;53957;47.222;18.670;2022-11-06T01:07:34;4.37;;;3.97;;
67051;SDS011;53957;47.222;18.670;2022-11-06T01:10:38;8.88;;;4.37;;
67051;SDS011;53957;47.222;18.670;2022-11-06T01:13:41;4.32;;;3.87;;
67051;SDS011;53957;47.222;18.670;2022-11-06T01:16:44;5.65;;;4.40;;
67051;SDS011;53957;47.222;18.670;2022-11-06T01:19:48;4.55;;;4.15;;
67051;SDS011;53957;47.222;18.670;2022-11-06T01:22:50;4.60;;;3.80;;
67051;SDS011;53957;47.222;18.670;2022-11-06T01:25:57;5.20;;;4.07;;
67051;SDS011;53957;47.222;18.670;2022-11-06T01:29:02;8.35;;;4.43;;
67051;SDS011;53957;47.222;18.670;2022-11-06T01:32:07;4.15;;;3.75;;
67051;SDS011;53957;47.222;18.670;2022-11-06T01:35:10;4.62;;;4.00;;
67051;SDS011;53957;47.222;18.670;2022-11-06T01:38:14;6.95;;;4.15;;
67051;SDS011;53957;47.222;18.670;2022-11-06T01:41:39;4.35;;;3.92;;
67051;SDS011;53957;47.222;18.670;2022-11-06T01:48:25;4.60;;;4.10;;
67051;SDS011;53957;47.222;18.670;2022-11-06T01:51:30;4.82;;;3.62;;
67051;SDS011;53957;47.222;18.670;2022-11-06T01:54:37;4.45;;;4.05;;
67051;SDS011;53957;47.222;18.670;2022-11-06T01:57:42;4.12;;;3.72;;
67051;SDS011;53957;47.222;18.670;2022-11-06T02:00:54;7.15;;;4.40;;
67051;SDS011;53957;47.222;18.670;2022-11-06T02:04:02;4.00;;;3.67;;
67051;SDS011;53957;47.222;18.670;2022-11-06T02:07:11;4.93;;;4.43;;
67051;SDS011;53957;47.222;18.670;2022-11-06T02:10:14;4.40;;;4.00;;
67051;SDS011;53957;47.222;18.670;2022-11-06T02:14:30;4.45;;;3.87;;
67051;SDS011;53957;47.222;18.670;2022-11-06T02:17:17;5.40;;;4.12;;
67051;SDS011;53957;47.222;18.670;2022-11-06T02:27:36;5.75;;;3.90;;
67051;SDS011;53957;47.222;18.670;2022-11-06T02:30:41;7.00;;;4.18;;
67051;SDS011;53957;47.222;18.670;2022-11-06T02:33:48;5.32;;;4.72;;
67051;SDS011;53957;47.222;18.670;2022-11-06T02:37:01;6.23;;;4.43;;
67051;SDS011;53957;47.222;18.670;2022-11-06T02:40:19;6.65;;;4.28;;
67051;SDS011;53957;47.222;18.670;2022-11-06T02:43:26;9.82;;;4.65;;
67051;SDS011;53957;47.222;18.670;2022-11-06T02:46:38;4.35;;;3.80;;
67051;SDS011;53957;47.222;18.670;2022-11-06T02:50:04;4.78;;;4.28;;
67051;SDS011;53957;47.222;18.670;2022-11-06T02:53:12;5.65;;;4.60;;
67051;SDS011;53957;47.222;18.670;2022-11-06T02:56:36;4.93;;;4.43;;
67051;SDS011;53957;47.222;18.670;2022-11-06T03:03:11;4.37;;;3.83;;
67051;SDS011;53957;47.222;18.670;2022-11-06T03:06:26;4.68;;;4.28;;
67051;SDS011;53957;47.222;18.670;2022-11-06T03:09:55;5.37;;;4.45;;
67051;SDS011;53957;47.222;18.670;2022-11-06T03:13:00;5.47;;;4.72;;
67051;SDS011;53957;47.222;18.670;2022-11-06T03:16:28;6.78;;;5.18;;
67051;SDS011;53957;47.222;18.670;2022-11-06T03:23:08;5.22;;;4.30;;
67051;SDS011;53957;47.222;18.670;2022-11-06T03:26:31;4.85;;;4.45;;
67051;SDS011;53957;47.222;18.670;2022-11-06T03:29:40;4.97;;;4.47;;
67051;SDS011;53957;47.222;18.670;2022-11-06T03:32:56;4.50;;;4.10;;
67051;SDS011;53957;47.222;18.670;2022-11-06T03:36:13;5.72;;;4.28;;
67051;SDS011;53957;47.222;18.670;2022-11-06T03:39:24;4.72;;;4.10;;
67051;SDS011;53957;47.222;18.670;2022-11-06T03:42:45;6.25;;;4.12;;
67051;SDS011;53957;47.222;18.670;2022-11-06T03:45:53;5.03;;;4.32;;
67051;SDS011;53957;47.222;18.670;2022-11-06T03:49:03;5.80;;;4.47;;
67051;SDS011;53957;47.222;18.670;2022-11-06T03:52:11;6.43;;;4.57;;
67051;SDS011;53957;47.222;18.670;2022-11-06T03:55:23;5.07;;;4.40;;
67051;SDS011;53957;47.222;18.670;2022-11-06T03:58:30;6.00;;;4.22;;
67051;SDS011;53957;47.222;18.670;2022-11-06T04:01:39;5.55;;;4.68;;
67051;SDS011;53957;47.222;18.670;2022-11-06T04:04:48;8.52;;;5.20;;
67051;SDS011;53957;47.222;18.670;2022-11-06T04:07:55;11.95;;;6.70;;
67051;SDS011;53957;47.222;18.670;2022-11-06T04:11:19;12.20;;;6.37;;
67051;SDS011;53957;47.222;18.670;2022-11-06T04:14:45;11.90;;;5.87;;
67051;SDS011;53957;47.222;18.670;2022-11-06T04:17:52;10.23;;;4.93;;
67051;SDS011;53957;47.222;18.670;2022-11-06T04:28:53;17.50;;;14.35;;
67051;SDS011;53957;47.222;18.670;2022-11-06T04:32:05;23.62;;;18.35;;
67051;SDS011;53957;47.222;18.670;2022-11-06T04:35:25;11.77;;;9.30;;
67051;SDS011;53957;47.222;18.670;2022-11-06T04:41:49;5.63;;;5.07;;
67051;SDS011;53957;47.222;18.670;2022-11-06T04:45:22;26.92;;;19.12;;
67051;SDS011;53957;47.222;18.670;2022-11-06T04:48:27;30.77;;;21.73;;
67051;SDS011;53957;47.222;18.670;2022-11-06T04:51:34;13.88;;;11.05;;
67051;SDS011;53957;47.222;18.670;2022-11-06T04:54:40;18.15;;;12.23;;
67051;SDS011;53957;47.222;18.670;2022-11-06T04:57:43;8.38;;;7.10;;
67051;SDS011;53957;47.222;18.670;2022-11-06T05:00:47;7.22;;;5.68;;
67051;SDS011;53957;47.222;18.670;2022-11-06T05:03:52;6.22;;;4.78;;
67051;SDS011;53957;47.222;18.670;2022-11-06T05:06:54;10.48;;;7.97;;
67051;SDS011;53957;47.222;18.670;2022-11-06T05:09:58;8.02;;;5.93;;
67051;SDS011;53957;47.222;18.670;2022-11-06T05:13:00;10.20;;;5.75;;
67051;SDS011;53957;47.222;18.670;2022-11-06T05:16:04;7.85;;;5.75;;
67051;SDS011;53957;47.222;18.670;2022-11-06T05:19:07;8.48;;;5.93;;
67051;SDS011;53957;47.222;18.670;2022-11-06T05:22:09;8.32;;;5.65;;
67051;SDS011;53957;47.222;18.670;2022-11-06T05:25:32;7.03;;;5.45;;
67051;SDS011;53957;47.222;18.670;2022-11-06T05:28:37;5.87;;;5.20;;
67051;SDS011;53957;47.222;18.670;2022-11-06T05:31:39;6.47;;;5.45;;
67051;SDS011;53957;47.222;18.670;2022-11-06T05:34:42;10.90;;;6.32;;
67051;SDS011;53957;47.222;18.670;2022-11-06T05:37:47;8.18;;;6.20;;
67051;SDS011;53957;47.222;18.670;2022-11-06T05:40:50;7.30;;;5.53;;
67051;SDS011;53957;47.222;18.670;2022-11-06T05:43:53;6.68;;;5.90;;
67051;SDS011;53957;47.222;18.670;2022-11-06T05:47:02;9.20;;;5.97;;
67051;SDS011;53957;47.222;18.670;2022-11-06T05:50:05;13.20;;;6.20;;
67051;SDS011;53957;47.222;18.670;2022-11-06T05:53:09;9.85;;;5.87;;
67051;SDS011;53957;47.222;18.670;2022-11-06T05:56:12;9.75;;;7.28;;
67051;SDS011;53957;47.222;18.670;2022-11-06T05:59:15;6.87;;;5.53;;
67051;SDS011;53957;47.222;18.670;2022-11-06T06:02:18;8.68;;;5.78;;
67051;SDS011;53957;47.222;18.670;2022-11-06T06:05:21;7.50;;;6.10;;
67051;SDS011;53957;47.222;18.670;2022-11-06T06:08:24;6.72;;;5.72;;
67051;SDS011;53957;47.222;18.670;2022-11-06T06:11:28;7.43;;;5.07;;
67051;SDS011;53957;47.222;18.670;2022-11-06T06:14:30;8.27;;;5.68;;
67051;SDS011;53957;47.222;18.670;2022-11-06T06:17:48;8.23;;;5.43;;
67051;SDS011;53957;47.222;18.670;2022-11-06T06:20:51;7.35;;;5.10;;
67051;SDS011;53957;47.222;18.670;2022-11-06T06:23:54;7.72;;;6.05;;
67051;SDS011;53957;47.222;18.670;2022-11-06T06:26:57;7.25;;;5.70;;
67051;SDS011;53957;47.222;18.670;2022-11-06T06:30:00;10.70;;;7.60;;
67051;SDS011;53957;47.222;18.670;2022-11-06T06:33:03;7.78;;;5.97;;
67051;SDS011;53957;47.222;18.670;2022-11-06T06:36:08;8.25;;;5.60;;
67051;SDS011;53957;47.222;18.670;2022-11-06T06:39:11;7.60;;;5.70;;
67051;SDS011;53957;47.222;18.670;2022-11-06T06:42:14;9.20;;;5.85;;
67051;SDS011;53957;47.222;18.670;2022-11-06T06:45:17;8.50;;;5.50;;
67051;SDS011;53957;47.222;18.670;2022-11-06T06:48:20;10.50;;;6.50;;
67051;SDS011;53957;47.222;18.670;2022-11-06T06:51:23;8.10;;;5.47;;
67051;SDS011;53957;47.222;18.670;2022-11-06T06:54:41;6.93;;;5.80;;
67051;SDS011;53957;47.222;18.670;2022-11-06T06:57:45;6.75;;;5.50;;
67051;SDS011;53957;47.222;18.670;2022-11-06T07:01:08;7.00;;;5.93;;
67051;SDS011;53957;47.222;18.670;2022-11-06T07:04:12;8.90;;;6.20;;
67051;SDS011;53957;47.222;18.670;2022-11-06T07:07:15;7.40;;;6.07;;
67051;SDS011;53957;47.222;18.670;2022-11-06T07:10:20;9.85;;;6.32;;
67051;SDS011;53957;47.222;18.670;2022-11-06T07:13:22;10.00;;;6.32;;
67051;SDS011;53957;47.222;18.670;2022-11-06T07:16:27;8.20;;;6.35;;
67051;SDS011;53957;47.222;18.670;2022-11-06T07:19:31;8.20;;;6.20;;
67051;SDS011;53957;47.222;18.670;2022-11-06T07:22:34;8.45;;;6.10;;
67051;SDS011;53957;47.222;18.670;2022-11-06T07:25:39;7.97;;;5.22;;
67051;SDS011;53957;47.222;18.670;2022-11-06T07:28:42;8.60;;;6.07;;
67051;SDS011;53957;47.222;18.670;2022-11-06T07:31:45;9.82;;;7.18;;
67051;SDS011;53957;47.222;18.670;2022-11-06T07:34:50;9.48;;;6.32;;
67051;SDS011;53957;47.222;18.670;2022-11-06T07:37:53;8.55;;;6.80;;
67051;SDS011;53957;47.222;18.670;2022-11-06T07:40:59;7.53;;;6.28;;
67051;SDS011;53957;47.222;18.670;2022-11-06T07:44:03;8.15;;;7.35;;
67051;SDS011;53957;47.222;18.670;2022-11-06T07:47:06;10.73;;;6.82;;
67051;SDS011;53957;47.222;18.670;2022-11-06T07:50:10;10.77;;;6.50;;
67051;SDS011;53957;47.222;18.670;2022-11-06T07:53:13;11.18;;;7.65;;
67051;SDS011;53957;47.222;18.670;2022-11-06T07:56:16;8.75;;;6.57;;
67051;SDS011;53957;47.222;18.670;2022-11-06T07:59:19;14.30;;;6.72;;
67051;SDS011;53957;47.222;18.670;2022-11-06T08:02:22;8.10;;;6.35;;
67051;SDS011;53957;47.222;18.670;2022-11-06T08:05:25;9.18;;;6.37;;
67051;SDS011;53957;47.222;18.670;2022-11-06T08:08:28;16.17;;;12.45;;
67051;SDS011;53957;47.222;18.670;2022-11-06T08:11:33;8.00;;;7.10;;
67051;SDS011;53957;47.222;18.670;2022-11-06T08:14:36;13.20;;;6.65;;
67051;SDS011;53957;47.222;18.670;2022-11-06T08:17:43;10.23;;;6.45;;
67051;SDS011;53957;47.222;18.670;2022-11-06T10:08:01;10.38;;;7.93;;
67051;SDS011;53957;47.222;18.670;2022-11-06T10:18:08;8.95;;;6.75;;
67051;SDS011;53957;47.222;18.670;2022-11-06T10:22:07;14.30;;;7.20;;
67051;SDS011;53957;47.222;18.670;2022-11-06T10:38:50;14.82;;;7.82;;
67051;SDS011;53957;47.222;18.670;2022-11-06T10:41:57;12.20;;;8.43;;
67051;SDS011;53957;47.222;18.670;2022-11-06T10:45:12;9.95;;;7.12;;
67051;SDS011;53957;47.222;18.670;2022-11-06T10:58:34;10.95;;;8.23;;
67051;SDS011;53957;47.222;18.670;2022-11-06T11:01:37;9.70;;;7.07;;
67051;SDS011;53957;47.222;18.670;2022-11-06T11:04:40;10.98;;;6.62;;
67051;SDS011;53957;47.222;18.670;2022-11-06T11:07:46;9.10;;;5.95;;
67051;SDS011;53957;47.222;18.670;2022-11-06T11:10:50;8.90;;;5.85;;
67051;SDS011;53957;47.222;18.670;2022-11-06T11:14:13;10.10;;;6.40;;
67051;SDS011;53957;47.222;18.670;2022-11-06T11:17:23;9.10;;;6.60;;
67051;SDS011;53957;47.222;18.670;2022-11-06T11:20:33;9.75;;;6.00;;
67051;SDS011;53957;47.222;18.670;2022-11-06T11:23:38;11.23;;;5.78;;
67051;SDS011;53957;47.222;18.670;2022-11-06T11:26:48;8.88;;;5.68;;
67051;SDS011;53957;47.222;18.670;2022-11-06T11:29:53;9.40;;;5.50;;
67051;SDS011;53957;47.222;18.670;2022-11-06T11:32:58;8.25;;;5.30;;
67051;SDS011;53957;47.222;18.670;2022-11-06T11:36:02;19.35;;;13.18;;
67051;SDS011;53957;47.222;18.670;2022-11-06T11:39:08;8.88;;;5.70;;
67051;SDS011;53957;47.222;18.670;2022-11-06T11:42:21;7.30;;;5.35;;
67051;SDS011;53957;47.222;18.670;2022-11-06T11:45:31;8.05;;;6.40;;
67051;SDS011;53957;47.222;18.670;2022-11-06T11:51:53;7.32;;;5.10;;
67051;SDS011;53957;47.222;18.670;2022-11-06T11:54:57;10.23;;;6.35;;
67051;SDS011;53957;47.222;18.670;2022-11-06T11:58:00;10.10;;;6.18;;
67051;SDS011;53957;47.222;18.670;2022-11-06T12:01:04;7.47;;;6.00;;
67051;SDS011;53957;47.222;18.670;2022-11-06T12:19:00;9.48;;;5.78;;
67051;SDS011;53957;47.222;18.670;2022-11-06T12:22:11;13.77;;;5.40;;
67051;SDS011;53957;47.222;18.670;2022-11-06T12:25:24;11.02;;;5.72;;
67051;SDS011;53957;47.222;18.670;2022-11-06T12:28:42;9.63;;;5.32;;
67051;SDS011;53957;47.222;18.670;2022-11-06T12:32:03;6.85;;;5.40;;
67051;SDS011;53957;47.222;18.670;2022-11-06T12:35:36;7.72;;;5.05;;
67051;SDS011;53957;47.222;18.670;2022-11-06T12:38:45;7.40;;;4.87;;
67051;SDS011;53957;47.222;18.670;2022-11-06T12:41:51;7.07;;;5.20;;
67051;SDS011;53957;47.222;18.670;2022-11-06T12:55:46;6.40;;;4.85;;
67051;SDS011;53957;47.222;18.670;2022-11-06T13:09:24;7.50;;;5.57;;
67051;SDS011;53957;47.222;18.670;2022-11-06T13:12:44;10.77;;;5.30;;
67051;SDS011;53957;47.222;18.670;2022-11-06T13:16:07;9.55;;;5.00;;
67051;SDS011;53957;47.222;18.670;2022-11-06T13:19:32;5.18;;;4.47;;
67051;SDS011;53957;47.222;18.670;2022-11-06T13:22:49;11.15;;;6.10;;
67051;SDS011;53957;47.222;18.670;2022-11-06T13:26:02;8.05;;;5.32;;
67051;SDS011;53957;47.222;18.670;2022-11-06T13:29:20;7.32;;;4.93;;
67051;SDS011;53957;47.222;18.670;2022-11-06T13:32:26;8.98;;;5.07;;
67051;SDS011;53957;47.222;18.670;2022-11-06T13:35:33;6.07;;;4.75;;
67051;SDS011;53957;47.222;18.670;2022-11-06T13:38:41;6.40;;;4.65;;
67051;SDS011;53957;47.222;18.670;2022-11-06T13:41:49;5.28;;;4.68;;
67051;SDS011;53957;47.222;18.670;2022-11-06T13:44:56;5.55;;;4.80;;
67051;SDS011;53957;47.222;18.670;2022-11-06T13:55:16;7.50;;;5.83;;
67051;SDS011;53957;47.222;18.670;2022-11-06T13:58:37;7.78;;;5.35;;
67051;SDS011;53957;47.222;18.670;2022-11-06T14:08:52;8.73;;;5.80;;
67051;SDS011;53957;47.222;18.670;2022-11-06T14:11:59;14.20;;;5.62;;
67051;SDS011;53957;47.222;18.670;2022-11-06T14:15:22;9.15;;;5.90;;
67051;SDS011;53957;47.222;18.670;2022-11-06T14:18:32;9.75;;;5.43;;
67051;SDS011;53957;47.222;18.670;2022-11-06T14:21:52;7.75;;;6.18;;
67051;SDS011;53957;47.222;18.670;2022-11-06T14:28:34;9.57;;;6.60;;
67051;SDS011;53957;47.222;18.670;2022-11-06T14:32:08;9.95;;;5.50;;
67051;SDS011;53957;47.222;18.670;2022-11-06T14:38:35;7.43;;;5.53;;
67051;SDS011;53957;47.222;18.670;2022-11-06T14:44:42;7.45;;;5.25;;
67051;SDS011;53957;47.222;18.670;2022-11-06T14:47:50;8.23;;;5.45;;
67051;SDS011;53957;47.222;18.670;2022-11-06T14:50:58;10.10;;;5.63;;
67051;SDS011;53957;47.222;18.670;2022-11-06T14:54:13;10.38;;;5.90;;
67051;SDS011;53957;47.222;18.670;2022-11-06T14:57:41;10.32;;;5.60;;
67051;SDS011;53957;47.222;18.670;2022-11-06T15:00:49;8.77;;;6.12;;
67051;SDS011;53957;47.222;18.670;2022-11-06T15:03:56;14.93;;;6.57;;
67051;SDS011;53957;47.222;18.670;2022-11-06T15:07:08;26.27;;;13.40;;
67051;SDS011;53957;47.222;18.670;2022-11-06T15:10:48;17.08;;;12.48;;
67051;SDS011;53957;47.222;18.670;2022-11-06T15:13:52;21.20;;;12.57;;
67051;SDS011;53957;47.222;18.670;2022-11-06T15:17:03;22.87;;;11.98;;
67051;SDS011;53957;47.222;18.670;2022-11-06T15:20:14;17.58;;;12.05;;
67051;SDS011;53957;47.222;18.670;2022-11-06T15:26:49;24.73;;;13.70;;
67051;SDS011;53957;47.222;18.670;2022-11-06T15:29:56;25.65;;;15.27;;
67051;SDS011;53957;47.222;18.670;2022-11-06T15:33:03;34.42;;;17.27;;
67051;SDS011;53957;47.222;18.670;2022-11-06T15:36:15;31.10;;;17.83;;
67051;SDS011;53957;47.222;18.670;2022-11-06T15:42:42;29.00;;;16.48;;
67051;SDS011;53957;47.222;18.670;2022-11-06T15:45:45;23.70;;;13.18;;
67051;SDS011;53957;47.222;18.670;2022-11-06T15:52:19;25.05;;;13.82;;
67051;SDS011;53957;47.222;18.670;2022-11-06T15:55:28;24.48;;;16.30;;
67051;SDS011;53957;47.222;18.670;2022-11-06T15:58:37;31.63;;;17.43;;
67051;SDS011;53957;47.222;18.670;2022-11-06T16:01:45;28.23;;;16.37;;
67051;SDS011;53957;47.222;18.670;2022-11-06T16:04:50;26.40;;;16.90;;
67051;SDS011;53957;47.222;18.670;2022-11-06T16:07:53;32.40;;;19.33;;
67051;SDS011;53957;47.222;18.670;2022-11-06T16:11:10;25.33;;;16.23;;
67051;SDS011;53957;47.222;18.670;2022-11-06T16:14:38;29.95;;;17.30;;
67051;SDS011;53957;47.222;18.670;2022-11-06T16:17:43;41.05;;;19.15;;
67051;SDS011;53957;47.222;18.670;2022-11-06T16:20:57;39.92;;;20.35;;
67051;SDS011;53957;47.222;18.670;2022-11-06T16:24:13;33.78;;;18.10;;
67051;SDS011;53957;47.222;18.670;2022-11-06T16:27:18;29.20;;;17.05;;
67051;SDS011;53957;47.222;18.670;2022-11-06T16:30:25;23.55;;;13.82;;
67051;SDS011;53957;47.222;18.670;2022-11-06T16:33:28;19.92;;;12.73;;
67051;SDS011;53957;47.222;18.670;2022-11-06T16:44:12;32.13;;;15.77;;
67051;SDS011;53957;47.222;18.670;2022-11-06T16:47:33;25.08;;;15.05;;
67051;SDS011;53957;47.222;18.670;2022-11-06T16:54:34;28.38;;;17.10;;
67051;SDS011;53957;47.222;18.670;2022-11-06T16:57:52;24.90;;;16.30;;
67051;SDS011;53957;47.222;18.670;2022-11-06T17:00:59;21.50;;;14.35;;
67051;SDS011;53957;47.222;18.670;2022-11-06T17:04:05;26.80;;;16.83;;
67051;SDS011;53957;47.222;18.670;2022-11-06T17:07:23;26.65;;;17.73;;
67051;SDS011;53957;47.222;18.670;2022-11-06T17:13:36;29.52;;;17.45;;
67051;SDS011;53957;47.222;18.670;2022-11-06T17:16:49;32.75;;;18.27;;
67051;SDS011;53957;47.222;18.670;2022-11-06T17:20:00;29.85;;;18.80;;
67051;SDS011;53957;47.222;18.670;2022-11-06T17:23:05;34.40;;;18.90;;
67051;SDS011;53957;47.222;18.670;2022-11-06T17:32:42;33.83;;;18.35;;
67051;SDS011;53957;47.222;18.670;2022-11-06T17:35:46;34.60;;;19.85;;
67051;SDS011;53957;47.222;18.670;2022-11-06T17:38:51;104.10;;;38.40;;
67051;SDS011;53957;47.222;18.670;2022-11-06T17:41:56;51.78;;;26.12;;
67051;SDS011;53957;47.222;18.670;2022-11-06T17:44:59;44.60;;;22.50;;
67051;SDS011;53957;47.222;18.670;2022-11-06T17:48:03;50.83;;;25.58;;
67051;SDS011;53957;47.222;18.670;2022-11-06T17:51:07;46.55;;;22.75;;
67051;SDS011;53957;47.222;18.670;2022-11-06T17:54:30;37.00;;;19.58;;
67051;SDS011;53957;47.222;18.670;2022-11-06T17:57:34;24.70;;;13.60;;
67051;SDS011;53957;47.222;18.670;2022-11-06T18:00:39;21.42;;;14.20;;
67051;SDS011;53957;47.222;18.670;2022-11-06T18:03:42;20.30;;;12.65;;
67051;SDS011;53957;47.222;18.670;2022-11-06T18:06:48;16.75;;;11.57;;
67051;SDS011;53957;47.222;18.670;2022-11-06T18:09:54;18.33;;;11.45;;
67051;SDS011;53957;47.222;18.670;2022-11-06T18:12:57;20.27;;;13.27;;
67051;SDS011;53957;47.222;18.670;2022-11-06T18:16:00;25.88;;;16.45;;
67051;SDS011;53957;47.222;18.670;2022-11-06T18:19:09;28.17;;;16.10;;
67051;SDS011;53957;47.222;18.670;2022-11-06T18:22:34;33.10;;;17.55;;
67051;SDS011;53957;47.222;18.670;2022-11-06T18:25:38;29.17;;;17.08;;
67051;SDS011;53957;47.222;18.670;2022-11-06T18:28:41;24.85;;;17.00;;
67051;SDS011;53957;47.222;18.670;2022-11-06T18:31:45;28.70;;;17.48;;
67051;SDS011;53957;47.222;18.670;2022-11-06T18:34:50;24.95;;;16.45;;
67051;SDS011;53957;47.222;18.670;2022-11-06T18:37:53;25.58;;;15.15;;
67051;SDS011;53957;47.222;18.670;2022-11-06T18:40:56;29.67;;;15.65;;
67051;SDS011;53957;47.222;18.670;2022-11-06T18:43:59;26.85;;;16.00;;
67051;SDS011;53957;47.222;18.670;2022-11-06T18:50:31;27.50;;;17.33;;
67051;SDS011;53957;47.222;18.670;2022-11-06T18:53:37;28.37;;;17.17;;
67051;SDS011;53957;47.222;18.670;2022-11-06T18:56:42;23.85;;;13.62;;
67051;SDS011;53957;47.222;18.670;2022-11-06T18:59:45;22.87;;;14.50;;
67051;SDS011;53957;47.222;18.670;2022-11-06T19:02:50;20.83;;;13.35;;
67051;SDS011;53957;47.222;18.670;2022-11-06T19:05:55;19.25;;;12.45;;
67051;SDS011;53957;47.222;18.670;2022-11-06T19:08:58;22.35;;;12.23;;
67051;SDS011;53957;47.222;18.670;2022-11-06T19:12:01;19.48;;;11.60;;
67051;SDS011;53957;47.222;18.670;2022-11-06T19:15:04;20.40;;;11.25;;
67051;SDS011;53957;47.222;18.670;2022-11-06T19:18:08;21.55;;;11.60;;
67051;SDS011;53957;47.222;18.670;2022-11-06T19:21:12;16.17;;;11.43;;
67051;SDS011;53957;47.222;18.670;2022-11-06T19:24:17;15.93;;;11.38;;
67051;SDS011;53957;47.222;18.670;2022-11-06T19:27:20;17.95;;;11.23;;
67051;SDS011;53957;47.222;18.670;2022-11-06T19:30:24;20.45;;;11.00;;
67051;SDS011;53957;47.222;18.670;2022-11-06T19:33:27;12.37;;;9.60;;
67051;SDS011;53957;47.222;18.670;2022-11-06T19:36:31;14.57;;;9.75;;
67051;SDS011;53957;47.222;18.670;2022-11-06T19:39:35;17.25;;;9.82;;
67051;SDS011;53957;47.222;18.670;2022-11-06T19:42:39;17.95;;;10.52;;
67051;SDS011;53957;47.222;18.670;2022-11-06T19:45:43;18.92;;;11.07;;
67051;SDS011;53957;47.222;18.670;2022-11-06T19:48:47;18.92;;;9.75;;
67051;SDS011;53957;47.222;18.670;2022-11-06T19:51:51;14.80;;;10.10;;
67051;SDS011;53957;47.222;18.670;2022-11-06T19:54:54;14.90;;;9.68;;
67051;SDS011;53957;47.222;18.670;2022-11-06T19:58:18;14.77;;;9.57;;
67051;SDS011;53957;47.222;18.670;2022-11-06T20:01:22;15.40;;;10.05;;
67051;SDS011;53957;47.222;18.670;2022-11-06T20:04:26;15.50;;;9.43;;
67051;SDS011;53957;47.222;18.670;2022-11-06T20:07:30;19.50;;;12.18;;
67051;SDS011;53957;47.222;18.670;2022-11-06T20:10:33;20.25;;;11.10;;
67051;SDS011;53957;47.222;18.670;2022-11-06T20:13:37;17.92;;;11.65;;
67051;SDS011;53957;47.222;18.670;2022-11-06T20:16:41;18.87;;;11.75;;
67051;SDS011;53957;47.222;18.670;2022-11-06T20:19:45;24.90;;;14.68;;
67051;SDS011;53957;47.222;18.670;2022-11-06T20:22:48;20.67;;;13.18;;
67051;SDS011;53957;47.222;18.670;2022-11-06T20:25:52;20.08;;;14.70;;
67051;SDS011;53957;47.222;18.670;2022-11-06T20:28:56;44.85;;;24.25;;
67051;SDS011;53957;47.222;18.670;2022-11-06T20:31:59;35.20;;;18.77;;
67051;SDS011;53957;47.222;18.670;2022-11-06T20:35:03;32.10;;;18.30;;
67051;SDS011;53957;47.222;18.670;2022-11-06T20:38:08;32.25;;;17.65;;
67051;SDS011;53957;47.222;18.670;2022-11-06T20:41:12;29.63;;;15.98;;
67051;SDS011;53957;47.222;18.670;2022-11-06T20:44:16;23.48;;;14.35;;
67051;SDS011;53957;47.222;18.670;2022-11-06T20:47:20;27.02;;;14.30;;
67051;SDS011;53957;47.222;18.670;2022-11-06T20:50:24;24.40;;;14.82;;
67051;SDS011;53957;47.222;18.670;2022-11-06T20:53:28;28.38;;;14.32;;
67051;SDS011;53957;47.222;18.670;2022-11-06T20:56:32;25.00;;;14.02;;
67051;SDS011;53957;47.222;18.670;2022-11-06T20:59:36;21.95;;;14.07;;
67051;SDS011;53957;47.222;18.670;2022-11-06T21:02:39;25.35;;;13.20;;
67051;SDS011;53957;47.222;18.670;2022-11-06T21:05:42;26.83;;;13.20;;
67051;SDS011;53957;47.222;18.670;2022-11-06T21:08:46;20.60;;;12.95;;
67051;SDS011;53957;47.222;18.670;2022-11-06T21:11:49;21.10;;;12.32;;
67051;SDS011;53957;47.222;18.670;2022-11-06T21:14:52;20.80;;;12.43;;
67051;SDS011;53957;47.222;18.670;2022-11-06T21:17:55;20.17;;;13.45;;
67051;SDS011;53957;47.222;18.670;2022-11-06T21:21:00;19.67;;;13.43;;
67051;SDS011;53957;47.222;18.670;2022-11-06T21:24:05;23.83;;;12.48;;
67051;SDS011;53957;47.222;18.670;2022-11-06T21:27:08;23.17;;;12.57;;
67051;SDS011;53957;47.222;18.670;2022-11-06T21:30:12;18.02;;;12.52;;
67051;SDS011;53957;47.222;18.670;2022-11-06T21:33:15;22.77;;;13.15;;
67051;SDS011;53957;47.222;18.670;2022-11-06T21:36:22;21.48;;;13.73;;
67051;SDS011;53957;47.222;18.670;2022-11-06T21:39:27;22.13;;;13.80;;
67051;SDS011;53957;47.222;18.670;2022-11-06T21:42:37;24.27;;;14.48;;
67051;SDS011;53957;47.222;18.670;2022-11-06T21:45:40;28.40;;;15.40;;
67051;SDS011;53957;47.222;18.670;2022-11-06T21:48:43;20.37;;;14.48;;
67051;SDS011;53957;47.222;18.670;2022-11-06T21:51:49;23.75;;;14.85;;
67051;SDS011;53957;47.222;18.670;2022-11-06T21:54:52;30.90;;;16.15;;
67051;SDS011;53957;47.222;18.670;2022-11-06T21:58:14;25.10;;;14.73;;
67051;SDS011;53957;47.222;18.670;2022-11-06T22:01:17;23.67;;;15.57;;
67051;SDS011;53957;47.222;18.670;2022-11-06T22:04:21;28.12;;;15.88;;
67051;SDS011;53957;47.222;18.670;2022-11-06T22:07:24;25.25;;;15.45;;
67051;SDS011;53957;47.222;18.670;2022-11-06T22:10:28;30.77;;;17.30;;
67051;SDS011;53957;47.222;18.670;2022-11-06T22:13:33;29.20;;;16.50;;
67051;SDS011;53957;47.222;18.670;2022-11-06T22:16:37;24.42;;;15.35;;
67051;SDS011;53957;47.222;18.670;2022-11-06T22:19:41;25.62;;;15.73;;
67051;SDS011;53957;47.222;18.670;2022-11-06T22:22:44;23.85;;;16.48;;
67051;SDS011;53957;47.222;18.670;2022-11-06T22:25:47;27.20;;;14.43;;
67051;SDS011;53957;47.222;18.670;2022-11-06T22:28:51;24.23;;;15.32;;
67051;SDS011;53957;47.222;18.670;2022-11-06T22:31:56;22.60;;;14.43;;
67051;SDS011;53957;47.222;18.670;2022-11-06T22:34:58;20.10;;;13.50;;
67051;SDS011;53957;47.222;18.670;2022-11-06T22:38:01;24.20;;;14.60;;
67051;SDS011;53957;47.222;18.670;2022-11-06T22:41:05;23.10;;;14.80;;
67051;SDS011;53957;47.222;18.670;2022-11-06T22:44:10;21.48;;;14.80;;
67051;SDS011;53957;47.222;18.670;2022-11-06T22:47:14;24.58;;;14.43;;